createdAt,value
2022-11-30T09:51:58.683Z,12.01
2022-11-30T09:54:36.845Z,12.09
2022-11-30T09:57:29.151Z,12.13
2022-11-30T10:00:02.300Z,12.16
2022-11-30T10:02:39.688Z,12.23
2022-11-30T10:05:19.623Z,12.24
2022-11-30T10:07:55.110Z,12.25
2022-11-30T10:10:36.458Z,12.27
2022-11-30T10:13:28.116Z,12.37
2022-11-30T10:16:04.175Z,12.47
2022-11-30T10:18:44.203Z,12.49
2022-11-30T10:21:23.223Z,12.67
2022-11-30T10:24:05.223Z,12.62
2022-11-30T10:26:38.239Z,12.77
2022-11-30T10:29:18.290Z,12.92
2022-11-30T10:31:47.562Z,12.85
2022-11-30T10:34:22.274Z,13.02
2022-11-30T10:37:29.400Z,13.14
2022-11-30T10:40:00.291Z,13.06
2022-11-30T10:42:42.724Z,13.20
2022-11-30T10:45:13.523Z,13.16
2022-11-30T10:48:07.792Z,13.21
2022-11-30T10:50:34.649Z,13.17
2022-11-30T10:53:01.821Z,13.46
2022-11-30T10:55:31.498Z,13.58
2022-11-30T10:58:05.255Z,13.64
2022-11-30T11:00:32.525Z,13.63
2022-11-30T11:02:59.164Z,13.49
2022-11-30T11:05:31.032Z,13.75
2022-11-30T11:08:17.114Z,13.69
2022-11-30T11:10:47.657Z,13.76
2022-11-30T11:13:41.968Z,13.87
2022-11-30T11:16:11.701Z,13.98
2022-11-30T11:18:57.787Z,14.12
2022-11-30T11:21:24.995Z,14.04
2022-11-30T11:23:57.188Z,14.10
2022-11-30T11:26:26.257Z,14.22
2022-11-30T11:28:55.068Z,14.20
2022-11-30T11:31:44.431Z,14.39
2022-11-30T11:34:32.081Z,14.61
2022-11-30T11:37:26.428Z,14.68
2022-11-30T11:40:05.579Z,14.59
2022-11-30T11:42:36.848Z,14.84
2022-11-30T11:45:06.260Z,15.08
2022-11-30T11:47:37.323Z,15.07
2022-11-30T11:50:49.854Z,15.18
2022-11-30T11:53:25.387Z,15.32
2022-11-30T11:56:10.078Z,15.46
2022-11-30T11:58:39.671Z,15.55
2022-11-30T12:01:38.722Z,15.73
2022-11-30T12:04:13.295Z,15.93
2022-11-30T12:06:42.263Z,15.98
2022-11-30T12:09:17.172Z,16.02
2022-11-30T12:11:47.551Z,16.00
2022-11-30T12:14:17.002Z,16.01
2022-11-30T12:16:49.774Z,15.82
2022-11-30T12:19:29.543Z,15.78
2022-11-30T12:22:21.264Z,15.76
2022-11-30T12:25:15.764Z,15.69
2022-11-30T12:27:57.524Z,15.58
2022-11-30T12:30:42.913Z,15.61
2022-11-30T12:33:21.357Z,15.46
2022-11-30T12:36:06.516Z,15.69
2022-11-30T12:38:45.598Z,15.61
2022-11-30T12:41:34.974Z,15.68
2022-11-30T12:44:42.042Z,15.75
2022-11-30T12:47:33.093Z,15.91
2022-11-30T12:50:21.412Z,15.91
2022-11-30T12:52:50.774Z,15.86
2022-11-30T12:55:32.915Z,15.86
2022-11-30T12:58:17.901Z,15.81
2022-11-30T13:00:50.517Z,15.70
2022-11-30T13:03:30.132Z,15.65
2022-11-30T13:06:01.162Z,15.69
2022-11-30T13:08:35.603Z,15.80
2022-11-30T13:11:12.320Z,15.76
2022-11-30T13:13:48.177Z,15.71
2022-11-30T13:16:15.437Z,15.76
2022-11-30T13:18:42.802Z,15.80
2022-11-30T13:21:21.517Z,15.91
2022-11-30T13:23:59.978Z,15.90
2022-11-30T13:26:44.533Z,15.97
2022-11-30T13:29:22.988Z,15.90
2022-11-30T13:32:48.629Z,15.85
2022-11-30T13:35:27.571Z,15.86
2022-11-30T13:38:34.798Z,15.85
2022-11-30T13:41:10.851Z,15.78
2022-11-30T13:43:45.840Z,15.73
2022-11-30T13:46:18.699Z,15.71
2022-11-30T13:48:46.368Z,15.56
2022-11-30T13:51:33.208Z,15.45
2022-11-30T13:54:38.880Z,15.41
2022-11-30T13:57:24.210Z,15.36
2022-11-30T13:59:53.147Z,15.37
2022-11-30T14:05:35.109Z,15.29
2022-11-30T14:08:01.779Z,15.28
2022-11-30T14:10:28.844Z,15.28
2022-11-30T14:12:59.906Z,15.26
2022-11-30T14:15:38.825Z,15.25
2022-11-30T14:18:19.919Z,15.28
2022-11-30T14:21:13.084Z,15.20
2022-11-30T14:23:39.799Z,15.21
2022-11-30T14:26:13.699Z,15.25
2022-11-30T14:28:57.412Z,15.33
2022-11-30T14:31:33.242Z,15.36
2022-11-30T14:34:15.645Z,15.42
2022-11-30T14:36:47.931Z,15.48
2022-11-30T14:39:34.221Z,15.53
2022-11-30T14:42:02.596Z,15.56
2022-11-30T14:44:39.281Z,15.53
2022-11-30T14:47:20.635Z,15.60
2022-11-30T14:49:52.148Z,15.55
2022-11-30T14:52:38.153Z,15.57
2022-11-30T14:55:13.635Z,15.59
2022-11-30T14:57:47.499Z,15.68
2022-11-30T15:00:17.325Z,15.71
2022-11-30T15:02:45.116Z,15.74
2022-11-30T15:05:17.455Z,15.70
2022-11-30T15:07:45.761Z,15.78
2022-11-30T15:10:29.614Z,15.75
2022-11-30T15:12:58.579Z,15.71
2022-11-30T15:15:27.917Z,15.61
2022-11-30T15:17:55.879Z,15.57
2022-11-30T15:20:29.765Z,15.49
2022-11-30T15:23:00.297Z,15.46
2022-11-30T15:25:43.335Z,15.46
2022-11-30T15:28:14.425Z,15.47
2022-11-30T15:30:45.348Z,15.46
2022-11-30T15:33:23.680Z,15.43
2022-11-30T15:36:16.280Z,15.43
2022-11-30T15:38:41.579Z,15.42
2022-11-30T15:41:23.956Z,15.42
2022-11-30T15:43:55.767Z,15.42
2022-11-30T15:46:34.674Z,15.39
2022-11-30T15:49:25.144Z,15.32
2022-11-30T15:52:09.790Z,15.26
2022-11-30T15:54:55.179Z,15.18
2022-11-30T15:57:24.320Z,15.17
2022-11-30T16:00:12.510Z,15.15
2022-11-30T16:02:39.295Z,15.03
2022-11-30T16:05:14.429Z,15.06
2022-11-30T16:07:52.849Z,15.03
2022-11-30T16:10:26.683Z,14.98
2022-11-30T16:12:55.067Z,14.98
2022-11-30T16:15:25.136Z,14.94
2022-11-30T16:17:55.000Z,14.91
2022-11-30T16:20:22.098Z,14.89
2022-11-30T16:22:49.219Z,14.86
2022-11-30T16:25:18.336Z,14.85
2022-11-30T16:27:45.124Z,14.79
2022-11-30T16:30:20.449Z,14.82
2022-11-30T16:32:47.859Z,14.80
2022-11-30T16:35:17.159Z,14.78
2022-11-30T16:37:43.810Z,14.74
2022-11-30T16:40:11.076Z,14.74
2022-11-30T16:42:37.721Z,14.73
2022-11-30T16:45:04.730Z,14.69
2022-11-30T16:47:31.472Z,14.69
2022-11-30T16:49:58.092Z,14.67
2022-11-30T16:52:24.704Z,14.63
2022-11-30T16:54:51.292Z,14.61
2022-11-30T16:57:17.937Z,14.58
2022-11-30T16:59:44.750Z,14.54
2022-11-30T17:02:20.008Z,14.54
2022-11-30T17:04:47.109Z,14.53
2022-11-30T17:07:14.110Z,14.53
2022-11-30T17:09:40.809Z,14.51
2022-11-30T17:12:09.485Z,14.47
2022-11-30T17:14:36.122Z,14.46
2022-11-30T17:17:02.835Z,14.46
2022-11-30T17:19:29.705Z,14.45
2022-11-30T17:21:56.314Z,14.44
2022-11-30T17:24:22.996Z,14.41
2022-11-30T17:26:49.899Z,14.42
2022-11-30T17:29:16.595Z,14.39
2022-11-30T17:31:43.204Z,14.39
2022-11-30T17:34:09.877Z,14.37
2022-11-30T17:36:36.591Z,14.37
2022-11-30T17:39:07.629Z,14.37
2022-11-30T17:41:34.289Z,14.39
2022-11-30T17:44:04.029Z,14.39
2022-11-30T17:46:30.740Z,14.37
2022-11-30T17:48:57.399Z,14.36
2022-11-30T17:51:24.090Z,14.31
2022-11-30T17:53:50.920Z,14.27
2022-11-30T17:56:17.864Z,14.29
2022-11-30T17:58:45.334Z,14.28
2022-11-30T18:01:23.876Z,14.28
2022-11-30T18:03:51.791Z,14.26
2022-11-30T18:06:19.214Z,14.25
2022-11-30T18:08:46.209Z,14.25
2022-11-30T18:11:15.821Z,14.22
2022-11-30T18:13:42.736Z,14.20
2022-11-30T18:16:15.116Z,14.17
2022-11-30T18:18:47.400Z,14.13
2022-11-30T18:21:17.750Z,14.13
2022-11-30T18:23:44.531Z,14.15
2022-11-30T18:26:13.651Z,14.10
2022-11-30T18:28:40.895Z,14.03
2022-11-30T18:31:07.830Z,13.98
2022-11-30T18:33:35.619Z,13.92
2022-11-30T18:36:05.079Z,13.90
2022-11-30T18:38:37.024Z,13.93
2022-11-30T18:41:04.646Z,13.92
2022-11-30T18:43:33.469Z,13.93
2022-11-30T18:46:08.409Z,13.93
2022-11-30T18:48:36.078Z,13.88
2022-11-30T18:51:17.488Z,13.76
2022-11-30T18:53:44.146Z,13.72
2022-11-30T18:56:14.467Z,13.69
2022-11-30T18:58:42.323Z,13.66
2022-11-30T19:01:18.261Z,13.69
2022-11-30T19:03:56.598Z,13.75
2022-11-30T19:06:30.079Z,13.70
2022-11-30T19:08:57.370Z,13.67
2022-11-30T19:11:24.645Z,13.63
2022-11-30T19:13:56.582Z,13.64
2022-11-30T19:16:24.794Z,13.48
2022-11-30T19:18:52.686Z,13.26
2022-11-30T19:21:20.837Z,13.13
2022-11-30T19:23:48.593Z,13.19
2022-11-30T19:26:15.951Z,13.25
2022-11-30T19:28:44.131Z,13.24
2022-11-30T19:31:16.306Z,13.17
2022-11-30T19:33:45.634Z,13.18
2022-11-30T19:36:21.443Z,13.24
2022-11-30T19:38:48.668Z,13.27
2022-11-30T19:41:15.721Z,13.29
2022-11-30T19:43:47.729Z,13.27
2022-11-30T19:46:17.965Z,13.27
2022-11-30T19:48:44.880Z,13.20
2022-11-30T19:51:17.931Z,13.24
2022-11-30T19:53:45.714Z,13.21
2022-11-30T19:56:15.277Z,13.16
2022-11-30T19:58:43.997Z,12.92
2022-11-30T20:01:14.566Z,13.04
2022-11-30T20:03:41.590Z,12.97
2022-11-30T20:06:08.333Z,12.81
2022-11-30T20:08:36.922Z,12.82
2022-11-30T20:11:10.919Z,12.82
2022-11-30T20:13:38.018Z,12.77
2022-11-30T20:16:16.171Z,12.83
2022-11-30T20:18:46.206Z,12.82
2022-11-30T20:21:18.526Z,12.68
2022-11-30T20:23:47.545Z,12.62
2022-11-30T20:26:29.823Z,12.60
2022-11-30T20:28:57.723Z,12.60
2022-11-30T20:31:25.713Z,12.59
2022-11-30T20:33:52.981Z,12.61
2022-11-30T20:36:20.766Z,12.71
2022-11-30T20:38:47.529Z,12.73
2022-11-30T20:41:20.032Z,12.72
2022-11-30T20:43:46.987Z,12.61
2022-11-30T20:46:23.942Z,12.49
2022-11-30T20:48:51.758Z,12.60
2022-11-30T20:51:31.736Z,12.54
2022-11-30T20:54:00.822Z,12.58
2022-11-30T20:56:27.484Z,12.52
2022-11-30T20:58:54.218Z,12.57
2022-11-30T21:01:22.766Z,12.49
2022-11-30T21:03:49.565Z,12.43
2022-11-30T21:06:16.193Z,12.37
2022-11-30T21:08:43.656Z,12.38
2022-11-30T21:11:13.364Z,12.43
2022-11-30T21:13:42.251Z,12.37
2022-11-30T21:16:09.022Z,12.37
2022-11-30T21:18:40.530Z,12.45
2022-11-30T21:21:13.108Z,12.42
2022-11-30T21:23:40.250Z,12.44
2022-11-30T21:26:10.496Z,12.49
2022-11-30T21:28:38.378Z,12.31
2022-11-30T21:31:05.964Z,12.34
2022-11-30T21:33:32.839Z,12.41
2022-11-30T21:35:59.483Z,12.48
2022-11-30T21:38:26.134Z,12.49
2022-11-30T21:41:00.102Z,12.51
2022-11-30T21:43:27.960Z,12.53
2022-11-30T21:46:05.340Z,12.43
2022-11-30T21:48:34.850Z,12.41
2022-11-30T21:51:09.877Z,12.29
2022-11-30T21:53:44.387Z,12.39
2022-11-30T21:56:14.760Z,12.50
2022-11-30T21:58:44.071Z,12.45
2022-11-30T22:01:53.429Z,12.39
2022-11-30T22:04:20.252Z,12.42
2022-11-30T22:06:46.858Z,12.48
2022-11-30T22:09:15.786Z,12.20
2022-11-30T22:11:45.204Z,12.37
2022-11-30T22:14:16.302Z,12.36
2022-11-30T22:16:44.900Z,12.18
2022-11-30T22:19:11.543Z,12.31
2022-11-30T22:21:38.861Z,12.32
2022-11-30T22:24:09.204Z,12.35
2022-11-30T22:26:40.957Z,12.23
2022-11-30T22:29:11.386Z,12.27
2022-11-30T22:31:40.963Z,12.31
2022-11-30T22:34:08.523Z,12.31
2022-11-30T22:36:36.880Z,12.39
2022-11-30T22:39:12.374Z,12.28
2022-11-30T22:41:40.558Z,12.31
2022-11-30T22:44:07.298Z,12.31
2022-11-30T22:46:36.872Z,12.39
2022-11-30T22:49:06.856Z,12.40
2022-11-30T22:51:35.697Z,12.44
2022-11-30T22:54:02.714Z,12.44
2022-11-30T22:56:34.101Z,12.49
2022-11-30T22:59:01.215Z,12.50
2022-11-30T23:01:30.950Z,12.47
2022-11-30T23:04:12.079Z,12.43
2022-11-30T23:06:40.743Z,12.47
2022-11-30T23:09:14.606Z,12.46
2022-11-30T23:11:41.748Z,12.36
2022-11-30T23:14:09.615Z,12.18
2022-11-30T23:16:36.862Z,12.22
2022-11-30T23:19:04.595Z,12.20
2022-11-30T23:21:40.341Z,12.15
2022-11-30T23:24:12.201Z,12.04
2022-11-30T23:26:39.104Z,11.87
2022-11-30T23:29:09.675Z,11.87
2022-11-30T23:31:38.675Z,11.80
2022-11-30T23:34:10.638Z,11.75
2022-11-30T23:36:37.639Z,11.68
2022-11-30T23:39:07.850Z,11.73
2022-11-30T23:41:34.574Z,11.72
2022-11-30T23:44:01.370Z,11.72
2022-11-30T23:46:28.391Z,11.57
2022-11-30T23:48:55.756Z,11.66
2022-11-30T23:51:23.567Z,11.50
2022-11-30T23:53:50.225Z,11.49
2022-11-30T23:56:18.841Z,11.63
2022-11-30T23:58:45.613Z,11.49
